M I D A S
Marine Information and Data Acquisition System
Tripno 1076 of the Zeeleeuw from 2006-04-26 06:45:50 to 2006-04-26 13:18:57
Back to CruiseResearch ActivitiesStationsMapUnderway DataData graphs

EquipmentUnitsComment
TimeDGPSUTC
LatitudeDGPSDM.mWGS84
LongitudeDGPSDM.mWGS84
HeadingGyrodeg 
SOGDGPSknotsSpeed over ground
COGDGPSdegCourse over ground
DepthEcho soundermeters200 kHz
Missing or incorrect values are displayed as -999
Navigation data collected by the RV Zeeleeuw from 2006-04-26 06:33:57 to 2006-04-26 13:17:11
Time Latitude Longitude Heading SOG COG Depth
2006-04-26 06:35:01 51°13.611 2°56.04 109.9 3.8 286 -999
2006-04-26 06:36:02 51°13.641 2°55.923 126.1 5.1 301 -999
2006-04-26 06:37:01 51°13.693 2°55.818 130.6 5.2 309 -999
2006-04-26 06:38:01 51°13.721 2°55.729 106.3 2.4 287 -999
2006-04-26 06:39:01 51°13.728 2°55.72 66.3 1 52 -999
2006-04-26 06:40:01 51°13.726 2°55.719 39.1 1.2 217 5.1
2006-04-26 06:41:01 51°13.746 2°55.713 350.7 3 348 9.3
2006-04-26 06:42:01 51°13.836 2°55.637 336.5 7.7 332 9
2006-04-26 06:43:01 51°13.964 2°55.546 342.8 8.6 337 -999
2006-04-26 06:44:01 51°14.071 2°55.467 339.6 5.9 335 -999
2006-04-26 06:45:01 51°14.153 2°55.4 335.7 5.9 331 -999
2006-04-26 06:46:01 51°14.243 2°55.286 322.7 7.6 318 -999
2006-04-26 06:47:01 51°14.345 2°55.12 319.9 9.6 315 -999
2006-04-26 06:48:01 51°14.478 2°54.934 338 11.3 331 8.6
2006-04-26 06:49:00 51°14.644 2°54.771 335.1 12.5 324 8.3
2006-04-26 06:50:00 51°14.827 2°54.612 343.3 12.5 332 8.1
2006-04-26 06:51:00 51°15.002 2°54.429 338.5 12.4 330 5.6
2006-04-26 06:52:00 51°15.184 2°54.279 343.9 12.5 331 7.8
2006-04-26 06:53:00 51°15.357 2°54.087 338.7 12.7 330 8.4
2006-04-26 06:54:02 51°15.549 2°53.92 339.3 12.8 328 9.2
2006-04-26 06:55:00 51°15.729 2°53.772 344.3 12.6 334 9.7
2006-04-26 06:56:00 51°15.914 2°53.612 342.5 12.6 331 10.2
2006-04-26 06:57:01 51°16.103 2°53.454 345 12.6 333 10.6
2006-04-26 06:58:02 51°16.294 2°53.304 346.2 12.6 338 10.8
2006-04-26 06:59:00 51°16.478 2°53.169 343.8 12.5 336 10.9
2006-04-26 07:00:01 51°16.67 2°53.024 343.9 12.5 336 10.5
2006-04-26 07:01:02 51°16.858 2°52.885 343.3 12 334 8.1
2006-04-26 07:02:01 51°17.038 2°52.747 344.9 12.3 337 9.1
2006-04-26 07:03:02 51°17.226 2°52.608 343.4 12.2 334 8.8
2006-04-26 07:04:02 51°17.408 2°52.465 343 12.2 333 9.5
2006-04-26 07:05:00 51°17.587 2°52.335 348.6 12.1 341 9.7
2006-04-26 07:06:01 51°17.786 2°52.29 7.4 11.9 357 9.6
2006-04-26 07:07:00 51°17.978 2°52.305 20.9 11.8 13 9.8
2006-04-26 07:08:02 51°18.177 2°52.356 16.3 11.7 8 10.1
2006-04-26 07:09:02 51°18.371 2°52.403 19 11.8 10 10.4
2006-04-26 07:10:00 51°18.557 2°52.458 18.9 11.8 11 10.8
2006-04-26 07:11:00 51°18.747 2°52.525 23.9 11.7 16 11.2
2006-04-26 07:12:02 51°18.943 2°52.608 24.7 11.8 16 11.9
2006-04-26 07:13:01 51°19.128 2°52.69 28.3 11.6 21 12.5
2006-04-26 07:14:02 51°19.304 2°52.827 34.2 11.6 25 13
2006-04-26 07:15:01 51°19.476 2°52.958 34.2 11.6 25 13.5
2006-04-26 07:16:01 51°19.651 2°53.092 32.5 11.7 24 14
2006-04-26 07:17:02 51°19.832 2°53.225 30.8 11.9 24 14.4
2006-04-26 07:18:00 51°20.006 2°53.349 31.7 11.7 25 15
2006-04-26 07:19:01 51°20.184 2°53.486 32.6 11.8 24 15.3
2006-04-26 07:20:00 51°20.36 2°53.613 31.3 11.7 25 15.4
2006-04-26 07:21:01 51°20.539 2°53.752 33.7 11.8 24 15.6
2006-04-26 07:22:00 51°20.713 2°53.883 31.9 11.8 25 15.7
2006-04-26 07:23:01 51°20.895 2°54.018 31.2 11.8 26 16
2006-04-26 07:24:02 51°21.075 2°54.155 30.5 11.8 22 16.1
2006-04-26 07:25:01 51°21.249 2°54.285 32 11.7 22 16.2
2006-04-26 07:26:00 51°21.423 2°54.413 31 11.7 25 16.4
2006-04-26 07:27:01 51°21.607 2°54.53 28.1 11.7 19 16.5
2006-04-26 07:28:01 51°21.796 2°54.618 24.3 12 16 16.7
2006-04-26 07:29:01 51°21.987 2°54.704 23.2 11.9 15 17.3
2006-04-26 07:30:02 51°22.185 2°54.775 21.8 12 13 18.2
2006-04-26 07:31:02 51°22.383 2°54.835 18.8 12.1 10 17.6
2006-04-26 07:32:02 51°22.58 2°54.894 19.3 12 12 18.6
2006-04-26 07:33:02 51°22.775 2°54.957 18.6 11.9 10 19.1
2006-04-26 07:34:01 51°22.966 2°55.026 18.1 11.9 12 19
2006-04-26 07:35:00 51°23.155 2°55.098 20.6 11.8 14 18.8
2006-04-26 07:36:00 51°23.348 2°55.163 15.9 11.8 9 18.7
2006-04-26 07:37:02 51°23.547 2°55.218 16.4 11.7 10 18.4
2006-04-26 07:38:01 51°23.735 2°55.266 17.6 11.6 11 19.2
2006-04-26 07:39:00 51°23.92 2°55.32 18.6 11.5 12 20.4
2006-04-26 07:40:00 51°24.113 2°55.368 14.9 11.5 8 20.6
2006-04-26 07:41:01 51°24.306 2°55.425 18.5 11.8 10 22.1
2006-04-26 07:42:01 51°24.501 2°55.476 17.1 11.9 9 23.6
2006-04-26 07:43:02 51°24.7 2°55.536 16.6 11.9 10 23.2
2006-04-26 07:44:01 51°24.895 2°55.603 16.8 12.3 12 23.1
2006-04-26 07:45:02 51°25.098 2°55.674 18.8 12.3 11 20.5
2006-04-26 07:46:01 51°25.292 2°55.735 17.4 11.9 10 15.7
2006-04-26 07:47:01 51°25.485 2°55.793 14.2 11.9 5 16.3
2006-04-26 07:48:00 51°25.678 2°55.831 10.8 12 4 16.3
2006-04-26 07:49:00 51°25.872 2°55.867 13.5 12 6 18.8
2006-04-26 07:50:00 51°26.067 2°55.904 15.1 11.7 9 18.1
2006-04-26 07:51:02 51°26.269 2°55.937 11.8 12.1 3 19.5
2006-04-26 07:52:00 51°26.46 2°55.957 12.8 11.7 5 22.7
2006-04-26 07:52:59 51°26.65 2°55.984 13.6 11.8 4 25
2006-04-26 07:54:02 51°26.854 2°56.011 13.5 11.7 5 26.5
2006-04-26 07:55:02 51°27.05 2°56.033 11.6 11.9 1 26.5
2006-04-26 07:56:02 51°27.247 2°56.053 14.1 11.9 5 28
2006-04-26 07:57:02 51°27.445 2°56.077 13.8 12.1 5 28.8
2006-04-26 07:58:02 51°27.645 2°56.125 18.7 12.2 11 27.5
2006-04-26 07:59:01 51°27.839 2°56.183 19.5 12 11 26.7
2006-04-26 08:00:00 51°28.034 2°56.241 20.3 12.2 12 27.3
2006-04-26 08:01:01 51°28.236 2°56.302 20.5 12.1 11 27.1
2006-04-26 08:02:01 51°28.437 2°56.358 18.2 12.3 9 26.3
2006-04-26 08:03:00 51°28.634 2°56.417 20.5 12.4 10 25.7
2006-04-26 08:04:01 51°28.837 2°56.481 19.8 12.2 13 24.5
2006-04-26 08:05:02 51°29.04 2°56.538 18 12 9 22.5
2006-04-26 08:06:00 51°29.229 2°56.597 19.8 12 12 22.5
2006-04-26 08:07:00 51°29.424 2°56.659 18.3 11.9 9 24.5
2006-04-26 08:08:01 51°29.618 2°56.738 28.3 11.9 26 27.1
2006-04-26 08:09:02 51°29.753 2°56.963 56.6 11.6 49 26.5
2006-04-26 08:10:01 51°29.893 2°57.175 45.6 11.8 38 26.7
2006-04-26 08:11:01 51°30.059 2°57.335 34.2 11.8 24 26.9
2006-04-26 08:12:01 51°30.245 2°57.444 24.4 12.1 15 27
2006-04-26 08:13:00 51°30.433 2°57.522 25.8 11.9 17 28
2006-04-26 08:14:02 51°30.635 2°57.599 22.6 12.2 9 28.9
2006-04-26 08:15:01 51°30.833 2°57.644 15.4 12.1 9 29.6
2006-04-26 08:16:01 51°31.037 2°57.605 353.9 12.7 340 29.8
2006-04-26 08:17:01 51°31.203 2°57.393 328.8 13 317 31.7
2006-04-26 08:18:02 51°31.359 2°57.138 325.2 13.2 314 31.9
2006-04-26 08:19:02 51°31.519 2°56.893 329.4 13.2 318 27.3
2006-04-26 08:20:01 51°31.672 2°56.668 327.3 12.5 315 17.4
2006-04-26 08:21:02 51°31.824 2°56.441 328 12.2 317 16.7
2006-04-26 08:22:00 51°31.971 2°56.227 329.1 12.4 317 19.6
2006-04-26 08:23:02 51°32.127 2°55.994 330.2 12.4 317 20.1
2006-04-26 08:24:02 51°32.279 2°55.766 329.8 12.6 316 20.6
2006-04-26 08:24:59 51°32.422 2°55.547 328.1 12.6 316 22.6
2006-04-26 08:26:01 51°32.578 2°55.306 329.5 12.5 317 23.5
2006-04-26 08:27:02 51°32.732 2°55.068 328.8 12.7 315 22
2006-04-26 08:28:02 51°32.879 2°54.821 327.1 12.9 314 25.6
2006-04-26 08:29:00 51°33.013 2°54.568 322 12.9 310 24.9
2006-04-26 08:30:01 51°33.14 2°54.278 317.4 13.2 304 25.5
2006-04-26 08:31:02 51°33.254 2°53.971 312.8 13.3 300 27.1
2006-04-26 08:32:00 51°33.327 2°53.647 289.8 13.6 270 28.4
2006-04-26 08:33:01 51°33.234 2°53.297 249.6 14.5 243 28.5
2006-04-26 08:34:02 51°33.118 2°52.947 247.9 14.6 240 28.2
2006-04-26 08:35:01 51°33.003 2°52.611 249 14.6 242 29.6
2006-04-26 08:36:01 51°32.886 2°52.269 249.6 14.6 242 30.1
2006-04-26 08:37:02 51°32.768 2°51.922 248.1 14.6 241 29.6
2006-04-26 08:38:00 51°32.657 2°51.59 248.5 14.7 241 30.8
2006-04-26 08:39:02 51°32.535 2°51.236 247.5 14.7 240 31.6
2006-04-26 08:40:00 51°32.412 2°50.913 244.6 14.7 238 32.1
2006-04-26 08:41:01 51°32.287 2°50.571 245.4 14.6 239 31.1
2006-04-26 08:42:02 51°32.163 2°50.227 247 14.6 240 28.5
2006-04-26 08:43:02 51°32.04 2°49.893 246.7 14.5 240 30.3
2006-04-26 08:44:02 51°31.915 2°49.561 245.1 14.5 239 31.8
2006-04-26 08:45:02 51°31.789 2°49.23 244.5 14.5 239 29.3
2006-04-26 08:46:02 51°31.665 2°48.9 244.5 14.4 238 29
2006-04-26 08:47:02 51°31.543 2°48.569 245.4 14.4 240 30.8
2006-04-26 08:48:02 51°31.423 2°48.237 245.3 14.3 239 29.8
2006-04-26 08:49:02 51°31.301 2°47.909 245.4 14.3 240 30.8
2006-04-26 08:49:59 51°31.188 2°47.595 246.1 14.3 240 29.1
2006-04-26 08:51:02 51°31.063 2°47.249 245 14.2 239 29.4
2006-04-26 08:52:00 51°30.948 2°46.933 245.1 14.2 238 27.8
2006-04-26 08:53:02 51°30.822 2°46.598 245.6 14.1 240 28
2006-04-26 08:54:01 51°30.706 2°46.278 244.5 14 235 28.8
2006-04-26 08:55:02 51°30.504 2°46.146 180.2 13.3 174 28.7
2006-04-26 08:56:01 51°30.342 2°46.35 128.4 13.1 129 27.2
2006-04-26 08:57:02 51°30.183 2°46.603 138 13.3 138 25.7
2006-04-26 08:58:00 51°30.059 2°46.868 108.8 12.3 103 24.3
2006-04-26 08:59:01 51°30.142 2°47.143 46.2 12.1 44 25.7
2006-04-26 09:00:02 51°30.259 2°47.414 59.5 12.2 57 25
2006-04-26 09:01:00 51°30.365 2°47.679 60.6 12.5 58 27
2006-04-26 09:02:02 51°30.479 2°47.966 59.6 12.1 56 26.7
2006-04-26 09:03:02 51°30.587 2°48.239 61.3 12.2 59 26.9
2006-04-26 09:04:01 51°30.69 2°48.519 63 12.3 60 27.9
2006-04-26 09:05:01 51°30.801 2°48.794 58.8 12.4 56 27.9
2006-04-26 09:06:02 51°30.913 2°49.075 59.3 12.3 56 27.5
2006-04-26 09:07:02 51°31.026 2°49.351 60.3 12.6 58 28.9
2006-04-26 09:08:02 51°31.127 2°49.638 62.4 12.3 61 25.5
2006-04-26 09:09:02 51°31.233 2°49.916 59.8 12.3 58 28.2
2006-04-26 09:10:02 51°31.337 2°50.196 59.8 12.1 58 28.1
2006-04-26 09:11:02 51°31.444 2°50.469 60.2 12.1 58 29
2006-04-26 09:12:01 51°31.544 2°50.746 62.7 12.3 60 30.2
2006-04-26 09:13:02 51°31.647 2°51.035 62.3 12.4 61 30.2
2006-04-26 09:14:01 51°31.751 2°51.318 62 12.3 61 29.6
2006-04-26 09:15:02 51°31.854 2°51.611 61.7 12.5 61 25.7
2006-04-26 09:16:02 51°31.959 2°51.892 62 12.4 59 28.4
2006-04-26 09:17:02 51°32.065 2°52.175 60.3 12.4 59 26.9
2006-04-26 09:18:02 51°32.173 2°52.457 60.4 12.5 60 26.7
2006-04-26 09:19:02 51°32.288 2°52.735 55.4 12.5 54 24.8
2006-04-26 09:20:02 51°32.407 2°53.007 58.2 12.5 58 26.4
2006-04-26 09:21:02 51°32.519 2°53.287 57.4 12.6 58 26.2
2006-04-26 09:22:02 51°32.633 2°53.573 56.6 12.6 55 24.1
2006-04-26 09:23:02 51°32.75 2°53.85 57.5 12.4 57 27.3
2006-04-26 09:24:02 51°32.864 2°54.128 55.8 12.6 56 24.7
2006-04-26 09:25:02 51°32.982 2°54.401 55.8 12.5 55 23.9
2006-04-26 09:26:02 51°33.099 2°54.678 58.8 12.6 60 26.1
2006-04-26 09:27:02 51°33.209 2°54.967 59.1 12.7 58 25.2
2006-04-26 09:28:02 51°33.317 2°55.259 59 12.7 58 27.6
2006-04-26 09:29:02 51°33.433 2°55.541 55.5 12.6 57 26
2006-04-26 09:30:02 51°33.554 2°55.816 53.8 12.6 56 28.5
2006-04-26 09:31:02 51°33.664 2°56.105 59.5 12.7 59 28.3
2006-04-26 09:32:02 51°33.778 2°56.393 55.9 12.7 54 30
2006-04-26 09:33:02 51°33.9 2°56.676 57.7 13 58 30
2006-04-26 09:34:02 51°34.018 2°56.966 54.6 12.8 55 30.3
2006-04-26 09:35:02 51°34.135 2°57.254 56.9 13 54 29.7
2006-04-26 09:36:02 51°34.255 2°57.548 58.4 13.2 58 28.2
2006-04-26 09:37:02 51°34.373 2°57.843 57.3 13.3 61 29.7
2006-04-26 09:38:02 51°34.462 2°58.167 66.6 13.3 66 29.7
2006-04-26 09:39:02 51°34.555 2°58.488 64.9 13.3 66 28.3
2006-04-26 09:40:02 51°34.646 2°58.817 65.4 13.6 65 27.8
2006-04-26 09:41:02 51°34.737 2°59.147 67.4 13.3 67 28
2006-04-26 09:42:02 51°34.82 2°59.479 69.6 13.3 70 27.6
2006-04-26 09:43:02 51°34.915 2°59.799 57.5 13.3 56 26.9
2006-04-26 09:44:02 51°35.046 3°0.085 53.5 13.3 52 27.3
2006-04-26 09:45:02 51°35.175 3°0.371 54.2 13.3 57 28.6
2006-04-26 09:46:02 51°35.141 3°0.694 127.5 13.5 128 26.8
2006-04-26 09:47:02 51°34.956 3°0.894 163.7 13.5 165 23.3
2006-04-26 09:48:02 51°34.751 3°0.815 217.6 12.7 215 21.1
2006-04-26 09:49:02 51°34.576 3°0.613 220.5 13 215 19.8
2006-04-26 09:50:02 51°34.401 3°0.41 223.1 12.9 217 18.2
2006-04-26 09:51:02 51°34.239 3°0.187 230.1 12.8 223 18.5
2006-04-26 09:52:02 51°34.083 2°59.954 229.7 12.8 222 19.3
2006-04-26 09:53:02 51°33.928 2°59.723 229.6 12.7 222 18.2
2006-04-26 09:54:02 51°33.773 2°59.491 231.8 12.7 224 19.9
2006-04-26 09:55:02 51°33.629 2°59.243 237.2 12.6 230 19.1
2006-04-26 09:56:02 51°33.489 2°58.991 235.8 12.6 228 19.9
2006-04-26 09:57:02 51°33.347 2°58.743 235.7 12.5 227 18.8
2006-04-26 09:58:02 51°33.208 2°58.495 236.7 12.5 228 19
2006-04-26 09:59:02 51°33.068 2°58.248 236.6 12.4 229 20.1
2006-04-26 10:00:02 51°32.93 2°58 237.3 12.4 229 19.2
2006-04-26 10:01:02 51°32.789 2°57.754 237.2 12.6 228 19.5
2006-04-26 10:02:02 51°32.649 2°57.507 236 12.5 227 20.4
2006-04-26 10:03:01 51°32.511 2°57.264 236.7 12.5 227 21.3
2006-04-26 10:04:02 51°32.369 2°57.013 236.6 12.5 228 21.9
2006-04-26 10:05:00 51°32.234 2°56.774 237.2 12.4 229 22.2
2006-04-26 10:06:02 51°32.087 2°56.526 231.7 12.3 218 19.3
2006-04-26 10:07:02 51°31.884 2°56.47 183.8 13 172 19.3
2006-04-26 10:08:02 51°31.68 2°56.62 160.3 13.7 151 19.8
2006-04-26 10:09:02 51°31.522 2°56.887 131.9 14 123 28.4
2006-04-26 10:10:02 51°31.42 2°57.225 122.8 13.9 116 34.3
2006-04-26 10:11:02 51°31.415 2°57.593 87.3 14.1 83 35.4
2006-04-26 10:12:02 51°31.474 2°57.954 72 14.1 69 33.5
2006-04-26 10:13:02 51°31.549 2°58.316 74.2 14.3 71 32.3
2006-04-26 10:14:02 51°31.626 2°58.677 75.7 14.4 72 31.8
2006-04-26 10:15:02 51°31.701 2°59.045 77.6 14.4 74 31.2
2006-04-26 10:16:02 51°31.778 2°59.411 74.3 14.5 70 29.5
2006-04-26 10:17:02 51°31.85 2°59.78 76.5 14.5 73 28.3
2006-04-26 10:18:01 51°31.927 3°0.14 77.1 14.3 72 26.7
2006-04-26 10:19:02 51°32.004 3°0.511 76.6 14.5 71 25.4
2006-04-26 10:20:02 51°32.08 3°0.878 78.2 14.5 76 26.7
2006-04-26 10:21:02 51°32.121 3°1.255 83.3 14.5 79 27.6
2006-04-26 10:22:02 51°32.165 3°1.638 82.4 14.7 79 27.1
2006-04-26 10:23:02 51°32.207 3°2.024 85.5 14.7 80 26.9
2006-04-26 10:24:02 51°32.248 3°2.409 84.2 14.6 81 28.2
2006-04-26 10:25:00 51°32.279 3°2.784 92.5 14.6 91 29.5
2006-04-26 10:26:02 51°32.186 3°3.138 131.7 14 126 30.9
2006-04-26 10:27:02 51°32.047 3°3.44 134.1 14.1 129 31.7
2006-04-26 10:28:02 51°31.881 3°3.688 150.7 13.4 142 31.2
2006-04-26 10:29:02 51°31.702 3°3.901 154.2 13.3 145 30.4
2006-04-26 10:30:02 51°31.52 3°4.096 156 13.1 147 29.6
2006-04-26 10:31:02 51°31.34 3°4.289 156 13.1 145 30.1
2006-04-26 10:32:02 51°31.158 3°4.483 156.3 13.1 146 29.8
2006-04-26 10:33:02 51°30.978 3°4.678 153.7 13.2 145 29.9
2006-04-26 10:34:02 51°30.797 3°4.874 155.8 13.1 146 27.2
2006-04-26 10:35:02 51°30.615 3°5.068 155.9 13.1 147 25.9
2006-04-26 10:36:00 51°30.438 3°5.257 154.5 13.3 146 23.7
2006-04-26 10:37:02 51°30.246 3°5.455 155.3 13.4 147 25.1
2006-04-26 10:38:02 51°30.06 3°5.651 154.7 13.4 146 26.6
2006-04-26 10:39:02 51°29.874 3°5.846 155.3 13.3 148 25.9
2006-04-26 10:40:02 51°29.689 3°6.042 155.9 13.3 147 25.1
2006-04-26 10:41:02 51°29.504 3°6.24 155.9 13.4 145 23.4
2006-04-26 10:42:02 51°29.319 3°6.44 155.3 13.5 146 21.5
2006-04-26 10:43:02 51°29.136 3°6.644 155.1 13.5 145 20.1
2006-04-26 10:44:02 51°28.949 3°6.844 158.3 13.4 148 18.9
2006-04-26 10:45:02 51°28.757 3°7.024 160.5 13.3 151 18.1
2006-04-26 10:46:02 51°28.566 3°7.202 158.5 13.3 149 18.2
2006-04-26 10:47:02 51°28.372 3°7.371 164.7 13.2 154 17.6
2006-04-26 10:48:02 51°28.173 3°7.52 164.7 13.3 154 16.9
2006-04-26 10:49:02 51°27.973 3°7.668 164.3 13.3 155 16
2006-04-26 10:50:02 51°27.772 3°7.815 163.9 13.3 154 14.9
2006-04-26 10:51:02 51°27.573 3°7.963 165.3 13.2 155 14.2
2006-04-26 10:52:02 51°27.374 3°8.113 164.7 13.1 155 14.7
2006-04-26 10:53:02 51°27.174 3°8.256 166.2 13.1 157 14.6
2006-04-26 10:54:02 51°26.969 3°8.366 174.6 12.7 166 14.3
2006-04-26 10:55:02 51°26.764 3°8.375 195.5 12.1 190 14.3
2006-04-26 10:56:02 51°26.579 3°8.262 213 11.8 208 13.5
2006-04-26 10:57:02 51°26.43 3°8.069 228.2 11.5 224 12.7
2006-04-26 10:58:02 51°26.29 3°7.862 227.3 11.4 223 12.1
2006-04-26 10:59:02 51°26.151 3°7.656 226.9 11.4 222 11.8
2006-04-26 11:00:02 51°26.01 3°7.456 226.8 11.2 222 11.2
2006-04-26 11:01:02 51°25.856 3°7.283 216 11.4 211 12.5
2006-04-26 11:02:02 51°25.675 3°7.2 190.1 11.9 178 12.7
2006-04-26 11:03:02 51°25.474 3°7.24 182 12.2 174 12.4
2006-04-26 11:04:02 51°25.273 3°7.279 179.6 12.4 169 12
2006-04-26 11:05:02 51°25.08 3°7.419 158.3 13 149 11.6
2006-04-26 11:06:02 51°24.898 3°7.62 152.4 13.5 143 12.4
2006-04-26 11:07:02 51°24.757 3°7.901 123 14.2 110 12.9
2006-04-26 11:08:02 51°24.786 3°8.276 74 14.7 71 12.4
2006-04-26 11:09:02 51°24.84 3°8.658 82.7 14.7 80 11.6
2006-04-26 11:10:02 51°24.881 3°9.044 84.4 14.8 82 11.3
2006-04-26 11:11:02 51°24.921 3°9.433 84.9 14.7 82 11
2006-04-26 11:12:02 51°24.951 3°9.82 86.1 14.7 82 11
2006-04-26 11:13:02 51°24.989 3°10.203 84.7 14.6 82 11.2
2006-04-26 11:14:02 51°25.012 3°10.59 87.6 14.6 83 11.7
2006-04-26 11:15:02 51°25.044 3°10.973 87.5 14.5 84 12.4
2006-04-26 11:16:02 51°25.04 3°11.358 96.3 14.4 91 13.1
2006-04-26 11:17:02 51°25.035 3°11.742 97.9 14.4 93 13.3
2006-04-26 11:18:02 51°25.025 3°12.124 93.2 14.4 87 14
2006-04-26 11:19:02 51°25.031 3°12.507 93.6 14.4 88 14.5
2006-04-26 11:20:02 51°25.018 3°12.891 103 14.4 99 15.1
2006-04-26 11:21:01 51°24.984 3°13.268 102.6 14.5 99 16
2006-04-26 11:22:02 51°24.949 3°13.66 101.8 14.6 97 16.4
2006-04-26 11:23:02 51°24.85 3°13.957 160.9 11.9 162 18.5
2006-04-26 11:24:02 51°24.698 3°13.816 237.8 11.2 234 20.3
2006-04-26 11:25:02 51°24.608 3°13.556 254.6 11.1 252 20.4
2006-04-26 11:26:02 51°24.548 3°13.278 254.6 11.1 249 21.2
2006-04-26 11:27:02 51°24.484 3°13.004 254.8 11 250 21
2006-04-26 11:28:02 51°24.394 3°12.75 244.8 10.9 238 20.6
2006-04-26 11:29:02 51°24.298 3°12.505 243.8 10.9 236 20.6
2006-04-26 11:30:01 51°24.201 3°12.267 243.8 10.8 235 20.5
2006-04-26 11:31:02 51°24.095 3°12.03 244.4 10.7 237 18.9
2006-04-26 11:32:02 51°23.996 3°11.789 243.7 10.9 237 17.7
2006-04-26 11:33:02 51°23.895 3°11.546 244.4 10.9 237 16.5
2006-04-26 11:34:02 51°23.794 3°11.302 242.7 11.1 236 15.7
2006-04-26 11:35:02 51°23.686 3°11.06 240.2 11.2 233 15.8
2006-04-26 11:36:02 51°23.572 3°10.824 240.1 11.2 232 15.5
2006-04-26 11:37:02 51°23.46 3°10.587 239.6 11.1 232 15.6
2006-04-26 11:38:01 51°23.351 3°10.353 240.3 11.3 233 15.6
2006-04-26 11:39:01 51°23.239 3°10.112 239.5 11.4 232 15.8
2006-04-26 11:40:01 51°23.127 3°9.866 240.2 11.6 233 16.4
2006-04-26 11:41:01 51°23.011 3°9.621 239.5 11.5 233 20.7
2006-04-26 11:42:01 51°22.899 3°9.374 241.1 11.3 234 16
2006-04-26 11:43:02 51°22.784 3°9.132 238.5 11.1 232 15.8
2006-04-26 11:44:02 51°22.683 3°8.884 243.8 11.1 237 15.5
2006-04-26 11:45:02 51°22.582 3°8.638 243.8 11.1 237 15.4
2006-04-26 11:46:02 51°22.489 3°8.384 245.7 11 239 15.4
2006-04-26 11:47:00 51°22.405 3°8.132 251.5 11.1 247 15.2
2006-04-26 11:48:02 51°22.329 3°7.856 251.7 11 247 15.1
2006-04-26 11:49:02 51°22.249 3°7.594 247.7 11 242 14.9
2006-04-26 11:50:02 51°22.167 3°7.331 248.6 11 243 14.8
2006-04-26 11:51:02 51°22.088 3°7.07 248.5 11 242 14.7
2006-04-26 11:52:02 51°22.014 3°6.806 253.4 10.9 249 14.5
2006-04-26 11:53:02 51°21.943 3°6.537 252.4 11 248 14.3
2006-04-26 11:54:02 51°21.87 3°6.267 250.4 11.1 246 14.1
2006-04-26 11:55:02 51°21.761 3°6.033 229.3 11.1 221 13.8
2006-04-26 11:56:02 51°21.621 3°5.841 230 11 224 13.5
2006-04-26 11:57:02 51°21.484 3°5.646 228.6 11.1 221 13.1
2006-04-26 11:58:02 51°21.354 3°5.44 231.6 11.1 225 12.7
2006-04-26 11:59:02 51°21.218 3°5.233 230.3 11.3 226 12.4
2006-04-26 12:00:02 51°21.081 3°5.022 230.1 11.5 225 12
2006-04-26 12:01:02 51°20.946 3°4.804 231.1 11.6 226 11.7
2006-04-26 12:02:02 51°20.859 3°4.535 252.6 11.5 249 11.5
2006-04-26 12:03:02 51°20.788 3°4.25 251.5 11.6 247 11.4
2006-04-26 12:04:02 51°20.717 3°3.965 252.2 11.4 249 11.4
2006-04-26 12:05:00 51°20.647 3°3.692 251.1 11.6 249 11.4
2006-04-26 12:06:02 51°20.601 3°3.381 261.6 11.7 259 11.4
2006-04-26 12:07:02 51°20.562 3°3.075 261.3 11.8 260 11.4
2006-04-26 12:08:02 51°20.523 3°2.766 259.8 11.9 259 11.5
2006-04-26 12:09:02 51°20.486 3°2.457 258.4 11.8 257 11.6
2006-04-26 12:10:01 51°20.452 3°2.154 260.7 11.7 261 11.7
2006-04-26 12:11:02 51°20.42 3°1.841 261.2 11.7 261 11.8
2006-04-26 12:12:02 51°20.382 3°1.533 260.6 11.9 260 11.6
2006-04-26 12:13:02 51°20.349 3°1.222 259.6 11.8 259 11.8
2006-04-26 12:14:02 51°20.311 3°0.912 258.1 11.8 256 12
2006-04-26 12:15:02 51°20.254 3°0.614 254 11.8 255 12
2006-04-26 12:16:02 51°20.201 3°0.315 254.9 11.7 255 12
2006-04-26 12:17:02 51°20.149 3°0.018 254.6 11.5 256 12.1
2006-04-26 12:18:02 51°20.093 2°59.727 250.6 11.4 249 12.2
2006-04-26 12:19:02 51°20.018 2°59.448 244.2 11.4 243 12.2
2006-04-26 12:20:02 51°19.947 2°59.163 251.1 11.6 251 12.2
2006-04-26 12:21:02 51°19.88 2°58.875 249.6 11.6 250 12.2
2006-04-26 12:22:02 51°19.814 2°58.586 250 11.6 251 12.2
2006-04-26 12:23:02 51°19.747 2°58.296 248.9 11.7 250 12.2
2006-04-26 12:24:02 51°19.677 2°58.008 247.8 11.6 249 12.4
2006-04-26 12:25:02 51°19.607 2°57.719 247.5 11.7 249 12.4
2006-04-26 12:26:02 51°19.536 2°57.432 246.4 11.6 246 12.5
2006-04-26 12:27:02 51°19.458 2°57.149 246.1 11.7 246 12.6
2006-04-26 12:28:02 51°19.382 2°56.862 246.5 11.7 246 12.7
2006-04-26 12:29:02 51°19.305 2°56.576 247.1 11.7 248 12.7
2006-04-26 12:30:02 51°19.227 2°56.291 246.7 11.7 247 13
2006-04-26 12:31:02 51°19.153 2°56.001 247.1 11.8 248 13
2006-04-26 12:32:02 51°19.076 2°55.712 246.9 11.8 247 13
2006-04-26 12:33:02 51°19 2°55.422 247.3 11.9 248 13.2
2006-04-26 12:34:02 51°18.923 2°55.134 245.9 11.8 247 13.5
2006-04-26 12:35:02 51°18.847 2°54.845 245.9 11.9 247 13.5
2006-04-26 12:36:02 51°18.771 2°54.556 246.4 11.9 246 13.5
2006-04-26 12:37:02 51°18.693 2°54.267 245.4 11.9 247 13.6
2006-04-26 12:38:02 51°18.618 2°53.973 245.3 11.9 247 13.4
2006-04-26 12:39:02 51°18.539 2°53.685 245.8 11.9 247 13.5
2006-04-26 12:40:02 51°18.462 2°53.394 246 11.9 248 13.5
2006-04-26 12:41:02 51°18.383 2°53.105 245.4 11.9 248 13.4
2006-04-26 12:42:02 51°18.3 2°52.82 241 11.9 242 13.3
2006-04-26 12:43:02 51°18.178 2°52.582 222.6 11.7 220 13.2
2006-04-26 12:44:02 51°18.004 2°52.447 201.6 11.7 198 12.9
2006-04-26 12:45:02 51°17.812 2°52.381 191.5 11.9 187 12.7
2006-04-26 12:46:02 51°17.613 2°52.36 183.4 12 177 12.7
2006-04-26 12:47:02 51°17.412 2°52.391 177.7 12.2 171 12.5
2006-04-26 12:48:02 51°17.213 2°52.465 173 12.3 168 12.2
2006-04-26 12:49:02 51°17.016 2°52.565 163.1 12.6 156 11.8
2006-04-26 12:50:02 51°16.821 2°52.686 164.6 12.6 158 11.8
2006-04-26 12:51:01 51°16.629 2°52.812 163.3 12.8 154 13.6
2006-04-26 12:52:01 51°16.438 2°52.949 165 12.4 157 14.1
2006-04-26 12:53:02 51°16.245 2°53.084 164 12.5 156 14.1
2006-04-26 12:54:02 51°16.051 2°53.205 165 12.5 158 13.9
2006-04-26 12:55:02 51°15.855 2°53.329 164.7 12.8 158 13.5
2006-04-26 12:56:02 51°15.657 2°53.452 165.7 12.7 158 12.9
2006-04-26 12:57:02 51°15.517 2°53.666 130.1 9.4 119 12.6
2006-04-26 12:58:02 51°15.428 2°53.874 140.2 9.7 133 12.2
2006-04-26 12:59:02 51°15.303 2°54.061 145.1 11.4 138 11.6
2006-04-26 13:00:02 51°15.143 2°54.249 153 12.6 146 10.9
2006-04-26 13:01:02 51°14.962 2°54.42 157.3 12.4 151 10.8
2006-04-26 13:02:02 51°14.78 2°54.553 164.4 11.9 156 11.4
2006-04-26 13:03:02 51°14.6 2°54.692 158.9 12.2 149 11.5
2006-04-26 13:04:02 51°14.445 2°54.906 140.4 12.3 133 12.2
2006-04-26 13:05:02 51°14.321 2°55.141 131.3 10.4 127 12.2
2006-04-26 13:06:02 51°14.228 2°55.322 137.9 8.1 135 12.2
2006-04-26 13:07:02 51°14.138 2°55.41 160.9 5.6 157 -999
2006-04-26 13:08:02 51°14.054 2°55.47 160.2 5.6 156 12.3
2006-04-26 13:09:02 51°13.968 2°55.535 161.4 5.8 157 12.2
2006-04-26 13:10:02 51°13.859 2°55.612 159.2 7.7 155 -999
2006-04-26 13:11:02 51°13.752 2°55.716 145.1 7.1 140 11.9
2006-04-26 13:12:02 51°13.686 2°55.839 128.9 5.2 124 11.4
2006-04-26 13:13:02 51°13.647 2°55.934 128 3.7 123 11.2
2006-04-26 13:14:02 51°13.62 2°56.007 120.8 2.9 117 11.1
2006-04-26 13:15:02 51°13.607 2°56.066 107.2 2 101 -999
2006-04-26 13:16:01 51°13.603 2°56.092 114.8 0.5 112 7.7
2006-04-26 13:17:01 51°13.602 2°56.098 121.4 0.2 67 7.5